createdAt,value
2023-02-22T00:04:49.856Z,65.99
2023-02-22T00:09:51.173Z,66.14
2023-02-22T00:14:52.554Z,66.46
2023-02-22T00:19:54.180Z,66.98
2023-02-22T00:24:57.189Z,66.28
2023-02-22T00:29:58.799Z,66.31
2023-02-22T00:35:00.147Z,66.93
2023-02-22T00:40:01.734Z,66.77
2023-02-22T00:45:05.170Z,67.00
2023-02-22T00:50:06.754Z,67.19
2023-02-22T00:55:10.298Z,67.12
2023-02-22T01:00:19.913Z,67.35
2023-02-22T01:05:23.869Z,67.46
2023-02-22T01:10:28.513Z,67.34
2023-02-22T01:15:30.672Z,67.42
2023-02-22T01:20:32.828Z,67.64
2023-02-22T01:25:35.079Z,67.89
2023-02-22T01:30:37.115Z,66.70
2023-02-22T01:35:40.966Z,67.06
2023-02-22T01:40:43.979Z,67.46
2023-02-22T01:45:57.857Z,67.64
2023-02-22T01:51:11.356Z,68.18
2023-02-22T01:56:13.770Z,67.37
2023-02-22T02:01:18.412Z,67.79
2023-02-22T02:06:20.547Z,67.64
2023-02-22T02:11:25.527Z,67.79
2023-02-22T02:16:36.957Z,67.98
2023-02-22T02:21:56.867Z,67.88
2023-02-22T02:27:18.895Z,67.62
2023-02-22T02:32:44.671Z,67.97
2023-02-22T02:38:12.648Z,67.71
2023-02-22T02:43:29.346Z,67.74
2023-02-22T02:48:34.145Z,68.13
2023-02-22T02:53:39.233Z,67.59
2023-02-22T02:58:49.575Z,68.54
2023-02-22T03:04:15.201Z,67.82
2023-02-22T03:09:44.005Z,67.67
2023-02-22T03:15:05.208Z,67.98
2023-02-22T03:20:21.634Z,67.97
2023-02-22T03:25:33.806Z,68.11
2023-02-22T03:30:39.354Z,68.39
2023-02-22T03:35:48.122Z,68.26
2023-02-22T03:40:54.301Z,67.80
2023-02-22T03:45:56.801Z,68.26
2023-02-22T03:50:58.484Z,68.90
2023-02-22T03:56:01.968Z,68.42
2023-02-22T04:01:03.886Z,69.00
2023-02-22T04:06:05.621Z,68.54
2023-02-22T04:11:06.982Z,68.64
2023-02-22T04:16:08.401Z,69.07
2023-02-22T04:21:09.738Z,68.98
2023-02-22T04:26:11.128Z,68.73
2023-02-22T04:31:12.456Z,69.15
2023-02-22T04:36:15.901Z,69.45
2023-02-22T04:41:18.906Z,69.08
2023-02-22T04:46:20.429Z,69.43
2023-02-22T04:51:21.776Z,69.35
2023-02-22T04:56:23.400Z,69.66
2023-02-22T05:01:24.704Z,69.37
2023-02-22T05:06:26.017Z,69.59
2023-02-22T05:11:27.622Z,69.68
2023-02-22T05:16:28.988Z,69.50
2023-02-22T05:21:30.396Z,69.81
2023-02-22T05:26:31.712Z,69.63
2023-02-22T05:31:33.172Z,69.44
2023-02-22T05:36:34.918Z,69.65
2023-02-22T05:41:36.307Z,69.57
2023-02-22T05:46:37.650Z,69.51
2023-02-22T05:51:39.176Z,69.95
2023-02-22T05:56:40.658Z,69.59
2023-02-22T06:01:42.129Z,69.61
2023-02-22T06:06:43.583Z,70.31
2023-02-22T06:11:45.263Z,70.29
2023-02-22T06:16:52.879Z,70.79
2023-02-22T06:21:56.755Z,69.95
2023-02-22T06:27:01.081Z,70.10
2023-02-22T06:32:02.553Z,70.39
2023-02-22T06:37:03.946Z,70.55
2023-02-22T06:42:05.770Z,69.95
2023-02-22T06:47:07.235Z,70.70
2023-02-22T06:52:09.672Z,70.33
2023-02-22T06:57:11.244Z,70.41
2023-02-22T07:02:13.265Z,70.20
2023-02-22T07:07:14.569Z,70.92
2023-02-22T07:12:16.037Z,70.62
2023-02-22T07:17:17.425Z,70.68
2023-02-22T07:27:36.772Z,70.91
2023-02-22T07:32:38.583Z,69.98
2023-02-22T07:37:40.351Z,70.11
2023-02-22T07:42:59.929Z,70.29
2023-02-22T07:48:04.338Z,70.71
2023-02-22T07:53:11.676Z,70.03
2023-02-22T07:58:32.640Z,70.49
2023-02-22T08:03:36.668Z,70.29
2023-02-22T08:08:38.504Z,70.32
2023-02-22T08:13:47.899Z,70.88
2023-02-22T08:18:51.082Z,70.38
2023-02-22T08:23:54.415Z,70.54
2023-02-22T08:28:57.292Z,70.67
2023-02-22T08:34:01.086Z,70.53
2023-02-22T08:39:02.690Z,70.83
2023-02-22T08:44:09.993Z,70.57
2023-02-22T08:54:27.926Z,71.24
2023-02-22T08:59:29.314Z,70.30
2023-02-22T09:04:30.651Z,70.65
2023-02-22T09:09:31.991Z,70.14
2023-02-22T09:14:33.957Z,70.05
2023-02-22T09:19:35.263Z,70.45
2023-02-22T09:24:36.706Z,69.74
2023-02-22T09:29:39.318Z,70.19
2023-02-22T09:34:45.739Z,69.74
2023-02-22T09:39:47.116Z,69.39
2023-02-22T09:55:57.630Z,70.04
2023-02-22T10:01:42.637Z,69.43
2023-02-22T10:07:01.381Z,69.00
2023-02-22T10:12:12.977Z,68.71
2023-02-22T10:17:34.061Z,68.07
2023-02-22T10:22:50.453Z,67.77
2023-02-22T10:28:01.300Z,67.68
2023-02-22T10:33:15.924Z,67.44
2023-02-22T10:38:20.884Z,67.14
2023-02-22T10:48:51.212Z,66.80
2023-02-22T11:04:30.114Z,66.48
2023-02-22T11:09:50.582Z,66.10
2023-02-22T11:14:51.939Z,65.63
2023-02-22T11:19:53.417Z,65.48
2023-02-22T11:25:07.378Z,65.51
2023-02-22T11:30:25.506Z,65.35
2023-02-22T11:35:35.294Z,65.05
2023-02-22T11:40:36.668Z,64.99
2023-02-22T11:45:44.212Z,64.08
2023-02-22T11:51:06.352Z,63.90
2023-02-22T11:56:17.322Z,63.68
2023-02-22T12:01:59.943Z,63.32
2023-02-22T12:07:10.609Z,62.53
2023-02-22T12:23:20.617Z,60.93
2023-02-22T12:55:11.959Z,56.70
2023-02-22T13:00:23.157Z,56.36
2023-02-22T13:05:24.685Z,56.03
2023-02-22T13:10:36.915Z,55.16
2023-02-22T13:16:00.243Z,54.71
2023-02-22T15:33:24.069Z,51.81
2023-02-22T15:38:30.309Z,52.15
2023-02-22T15:43:32.594Z,52.58
2023-02-22T15:48:35.616Z,52.68
2023-02-22T15:53:46.015Z,52.89
2023-02-22T15:58:48.242Z,53.14
2023-02-22T16:04:20.157Z,53.50
2023-02-22T16:09:29.411Z,53.33
2023-02-22T16:14:37.544Z,53.70
2023-02-22T16:19:42.755Z,53.99
2023-02-22T16:24:44.574Z,54.24
2023-02-22T16:30:25.695Z,54.33
2023-02-22T16:35:29.140Z,54.29
2023-02-22T17:01:35.134Z,55.31
2023-02-22T17:06:36.770Z,55.38
2023-02-22T17:11:38.763Z,56.04
2023-02-22T17:16:40.197Z,56.40
2023-02-22T17:21:41.589Z,56.68
2023-02-22T17:26:43.061Z,56.73
2023-02-22T17:31:44.964Z,56.71
2023-02-22T17:36:46.496Z,56.58
2023-02-22T17:41:54.942Z,56.93
2023-02-22T17:46:56.329Z,56.66
2023-02-22T17:51:57.997Z,57.03
2023-02-22T17:57:00.320Z,57.19
2023-02-22T18:02:03.096Z,57.05
2023-02-22T18:07:04.613Z,56.78
2023-02-22T18:12:06.017Z,57.13
2023-02-22T18:17:07.866Z,57.20
2023-02-22T18:22:09.188Z,57.60
2023-02-22T18:27:11.808Z,57.84
2023-02-22T18:32:13.662Z,57.70
2023-02-22T18:37:20.320Z,58.44
2023-02-22T18:42:30.843Z,58.22
2023-02-22T18:47:38.235Z,58.52
2023-02-22T18:52:46.022Z,58.69
2023-02-22T18:57:48.789Z,58.92
2023-02-22T19:02:50.540Z,59.25
2023-02-22T19:07:51.970Z,59.33
2023-02-22T19:12:53.315Z,59.68
2023-02-22T19:17:55.727Z,59.43
2023-02-22T19:22:57.130Z,59.77
2023-02-22T19:27:58.461Z,60.00
2023-02-22T19:33:02.480Z,60.18
2023-02-22T19:38:04.160Z,59.95
2023-02-22T19:43:05.497Z,60.11
2023-02-22T19:48:06.972Z,60.40
2023-02-22T19:53:13.882Z,61.04
2023-02-22T19:58:15.350Z,61.15
2023-02-22T20:03:23.338Z,61.41
2023-02-22T20:08:26.191Z,61.25
2023-02-22T20:13:27.890Z,61.39
2023-02-22T20:18:30.149Z,61.41
2023-02-22T20:23:31.539Z,61.80
2023-02-22T20:28:34.059Z,61.76
2023-02-22T20:33:35.431Z,61.82
2023-02-22T20:38:37.813Z,62.21
2023-02-22T20:43:39.723Z,62.02
2023-02-22T20:48:41.144Z,62.29
2023-02-22T20:53:44.798Z,62.61
2023-02-22T20:58:46.753Z,62.77
2023-02-22T21:03:48.698Z,62.95
2023-02-22T21:08:56.932Z,62.92
2023-02-22T21:13:59.870Z,63.15
2023-02-22T21:19:04.106Z,63.31
2023-02-22T21:24:05.821Z,63.28
2023-02-22T21:29:07.226Z,63.61
2023-02-22T21:34:12.864Z,63.87
2023-02-22T21:39:18.222Z,63.53
2023-02-22T21:44:20.606Z,63.64
2023-02-22T21:49:23.053Z,63.95
2023-02-22T21:54:24.490Z,63.72
2023-02-22T21:59:25.923Z,63.83
2023-02-22T22:04:31.832Z,63.93
2023-02-22T22:09:35.325Z,64.00
2023-02-22T22:14:37.827Z,63.88
2023-02-22T22:19:39.575Z,64.16
2023-02-22T22:24:45.857Z,64.53
2023-02-22T22:29:47.235Z,64.33
2023-02-22T22:34:49.263Z,64.62
2023-02-22T22:39:50.594Z,64.82
2023-02-22T22:44:51.955Z,64.53
2023-02-22T22:49:59.509Z,64.76
2023-02-22T22:55:01.322Z,64.09
2023-02-22T23:00:22.659Z,64.23
2023-02-22T23:05:28.618Z,64.14
2023-02-22T23:10:31.834Z,64.59
2023-02-22T23:15:33.154Z,64.41
2023-02-22T23:20:38.789Z,64.23
2023-02-22T23:25:41.589Z,64.63
2023-02-22T23:30:43.795Z,64.46
2023-02-22T23:35:48.644Z,64.54
2023-02-22T23:40:53.849Z,64.71
2023-02-22T23:45:57.099Z,64.84
2023-02-22T23:51:01.029Z,64.78
2023-02-22T23:56:02.339Z,64.99
